createdAt,value
2016-04-20T08:27:31.297Z,1007.57
2016-04-20T08:28:31.191Z,1007.58
2016-04-20T08:29:31.786Z,1007.57
2016-04-20T08:30:31.164Z,1007.61
2016-04-20T08:31:31.152Z,1007.62
2016-04-20T08:32:31.138Z,1007.66
2016-04-20T08:33:31.157Z,1007.64
2016-04-20T08:34:31.129Z,1007.65
2016-04-20T08:35:31.084Z,1007.62
2016-04-20T08:36:31.087Z,1007.61
2016-04-20T08:37:31.074Z,1007.67
2016-04-20T08:38:31.060Z,1007.66
2016-04-20T08:39:31.032Z,1007.64
2016-04-20T08:40:31.020Z,1007.71
2016-04-20T08:41:31.007Z,1007.69
2016-04-20T08:42:30.993Z,1007.69
2016-04-20T08:43:30.981Z,1007.71
2016-04-20T08:44:30.984Z,1007.67
2016-04-20T08:45:30.955Z,1007.69
2016-04-20T08:46:30.942Z,1007.69
2016-04-20T08:47:30.929Z,1007.7
2016-04-20T08:48:30.917Z,1007.75
2016-04-20T08:49:30.904Z,1007.77
2016-04-20T08:50:30.890Z,1007.74
2016-04-20T08:51:30.878Z,1007.72
2016-04-20T08:52:30.864Z,1007.77
2016-04-20T08:53:30.851Z,1007.78
2016-04-20T08:54:30.839Z,1007.77
2016-04-20T08:55:30.825Z,1007.78
2016-04-20T08:56:30.813Z,1007.8
2016-04-20T08:57:30.799Z,1007.74
2016-04-20T08:58:30.787Z,1007.81
2016-04-20T08:59:30.774Z,1007.85
2016-04-20T09:00:30.761Z,1007.8
2016-04-20T09:01:30.733Z,1007.84
2016-04-20T09:02:30.735Z,1007.88
2016-04-20T09:03:30.722Z,1007.86
2016-04-20T09:04:30.709Z,1007.89
2016-04-20T09:05:30.696Z,1007.91
2016-04-20T09:06:30.682Z,1007.95
2016-04-20T09:07:30.671Z,1007.88
2016-04-20T09:08:30.657Z,1007.91
2016-04-20T09:09:30.644Z,1007.95
2016-04-20T09:10:30.632Z,1007.96
2016-04-20T09:11:30.604Z,1007.99
2016-04-20T09:12:30.637Z,1008
2016-04-20T09:13:30.593Z,1008
2016-04-20T09:14:30.580Z,1008.01
2016-04-20T09:15:30.567Z,1008.04
2016-04-20T09:16:30.538Z,1007.99
2016-04-20T09:17:30.540Z,1007.98
2016-04-20T09:18:30.528Z,1008.03
2016-04-20T09:19:30.500Z,1008.02
2016-04-20T09:20:30.503Z,1008.04
2016-04-20T09:21:30.520Z,1008.07
2016-04-20T09:22:30.553Z,1008.11
2016-04-20T09:23:30.556Z,1008.06
2016-04-20T09:24:30.450Z,1008.07
2016-04-20T09:25:30.436Z,1008.05
2016-04-20T09:26:30.424Z,1008.05
2016-04-20T09:27:30.410Z,1008.05
2016-04-20T09:28:30.398Z,1008.12
2016-04-20T09:29:30.385Z,1008.11
2016-04-20T09:30:30.372Z,1008.1
2016-04-20T09:31:30.359Z,1008.11
2016-04-20T09:32:30.346Z,1008.11
2016-04-20T09:33:30.332Z,1008.09
2016-04-20T09:34:30.320Z,1008.14
2016-04-20T09:35:30.307Z,1008.11
2016-04-20T09:36:30.309Z,1008.13
2016-04-20T09:37:30.281Z,1008.15
2016-04-20T09:38:30.267Z,1008.17
2016-04-20T09:39:30.256Z,1008.19
2016-04-20T09:40:30.242Z,1008.24
2016-04-20T09:41:30.245Z,1008.23
2016-04-20T09:42:30.404Z,1008.28
2016-04-20T09:43:30.203Z,1008.3
2016-04-20T09:44:30.206Z,1008.35
2016-04-20T09:45:30.177Z,1008.38
2016-04-20T09:46:30.180Z,1008.42
2016-04-20T09:47:30.167Z,1008.53
2016-04-20T09:48:30.155Z,1008.54
2016-04-20T09:49:30.142Z,1008.52
2016-04-20T09:50:30.128Z,1008.54
2016-04-20T09:51:30.116Z,1008.58
2016-04-20T09:52:30.102Z,1008.57
2016-04-20T09:53:30.090Z,1008.64
2016-04-20T09:54:30.077Z,1008.62
2016-04-20T09:55:30.064Z,1008.6
2016-04-20T09:56:30.051Z,1008.65
2016-04-20T09:57:30.038Z,1008.66
2016-04-20T09:58:30.025Z,1008.6
2016-04-20T09:59:30.012Z,1008.62
2016-04-20T10:00:30.015Z,1008.65
2016-04-20T10:01:29.986Z,1008.67
2016-04-20T10:02:29.973Z,1008.7
2016-04-20T10:03:29.960Z,1008.67
2016-04-20T10:04:29.947Z,1008.68
2016-04-20T10:05:29.950Z,1008.72
2016-04-20T10:06:29.921Z,1008.71
2016-04-20T10:07:29.923Z,1008.66
2016-04-20T10:08:29.911Z,1008.66
2016-04-20T10:09:29.898Z,1008.67
2016-04-20T10:10:29.979Z,1008.71
2016-04-20T10:11:29.889Z,1008.69
2016-04-20T10:12:29.859Z,1008.75
2016-04-20T10:13:29.847Z,1008.76
2016-04-20T10:14:29.834Z,1008.75
2016-04-20T10:15:29.821Z,1008.77
2016-04-20T10:16:29.808Z,1008.77
2016-04-20T10:17:29.795Z,1008.84
2016-04-20T10:18:29.798Z,1008.76
2016-04-20T10:19:29.769Z,1008.8
2016-04-20T10:20:29.772Z,1008.8
2016-04-20T10:21:29.744Z,1008.84
2016-04-20T10:22:29.746Z,1008.72
2016-04-20T10:23:29.733Z,1008.78
2016-04-20T10:24:29.720Z,1008.83
2016-04-20T10:25:29.707Z,1008.82
2016-04-20T10:26:29.694Z,1008.78
2016-04-20T10:27:29.681Z,1008.83
2016-04-20T10:28:29.668Z,1008.84
2016-04-20T10:29:29.655Z,1008.83
2016-04-20T10:30:29.643Z,1008.86
2016-04-20T10:31:29.629Z,1008.87
2016-04-20T10:32:29.616Z,1008.86
2016-04-20T10:33:29.619Z,1008.88
2016-04-20T10:34:29.607Z,1008.88
2016-04-20T10:35:29.594Z,1008.88
2016-04-20T10:36:29.581Z,1008.97
2016-04-20T10:37:29.567Z,1008.99
2016-04-20T10:38:30.398Z,1009.06
2016-04-20T10:39:29.542Z,1008.98
2016-04-20T10:40:29.528Z,1008.93
2016-04-20T10:41:29.516Z,1009.06
2016-04-20T10:42:29.518Z,1008.95
2016-04-20T10:43:29.506Z,1009
2016-04-20T10:44:29.492Z,1009.03
2016-04-20T10:45:29.480Z,1008.87
2016-04-20T10:46:29.467Z,1008.92
2016-04-20T10:47:29.439Z,1009
2016-04-20T10:48:29.441Z,1009.03
2016-04-20T10:49:29.428Z,1008.97
2016-04-20T10:50:29.414Z,1009.03
2016-04-20T10:51:29.402Z,1009.07
2016-04-20T10:52:29.389Z,1009.02
2016-04-20T10:53:29.376Z,1008.95
2016-04-20T10:54:29.379Z,1008.96
2016-04-20T10:55:29.350Z,1009
2016-04-20T10:56:29.353Z,1008.94
2016-04-20T10:57:29.340Z,1008.97
2016-04-20T10:58:29.327Z,1008.95
2016-04-20T10:59:29.313Z,1008.92
2016-04-20T11:00:29.301Z,1008.94
2016-04-20T11:01:29.304Z,1008.9
2016-04-20T11:02:29.291Z,1008.84
2016-04-20T11:03:29.279Z,1008.89
2016-04-20T11:04:29.265Z,1008.95
2016-04-20T11:05:29.252Z,1009
2016-04-20T11:06:29.254Z,1008.95
2016-04-20T11:07:29.242Z,1009.21
2016-04-20T11:08:29.229Z,1009.26
2016-04-20T11:09:29.216Z,1008.91
2016-04-20T11:10:29.203Z,1009.23
2016-04-20T11:11:29.206Z,1008.82
2016-04-20T11:12:29.193Z,1009.21
2016-04-20T11:13:29.181Z,1009.24
2016-04-20T11:14:29.167Z,1008.86
2016-04-20T11:15:29.186Z,1009.18
2016-04-20T11:16:29.156Z,1009.28
2016-04-20T11:17:29.159Z,1009.21
2016-04-20T11:18:29.131Z,1009.19
2016-04-20T11:19:29.134Z,1009.11
2016-04-20T11:20:29.121Z,1009.1
2016-04-20T11:21:29.123Z,1009.18
2016-04-20T11:22:29.111Z,1008.89
2016-04-20T11:23:29.550Z,1009.12
2016-04-20T11:24:29.085Z,1009.25
2016-04-20T11:25:29.088Z,1009.2
2016-04-20T11:26:29.074Z,1009
2016-04-20T11:27:29.077Z,1009.23
2016-04-20T11:28:29.063Z,1009.21
2016-04-20T11:29:29.051Z,1009.26
2016-04-20T11:30:29.054Z,1009.09
2016-04-20T11:31:29.041Z,1009.22
2016-04-20T11:32:29.044Z,1009.11
2016-04-20T11:33:29.031Z,1009.1
2016-04-20T11:34:29.033Z,1009.23
2016-04-20T11:35:29.036Z,1009.3
2016-04-20T11:36:29.023Z,1008.91
2016-04-20T11:37:29.026Z,1008.87
2016-04-20T11:38:29.013Z,1009.19
2016-04-20T11:39:29.016Z,1009.4
2016-04-20T11:40:29.003Z,1009.36
2016-04-20T11:41:28.990Z,1009.38
2016-04-20T11:42:29.008Z,1009.32
2016-04-20T11:43:28.995Z,1008.97
2016-04-20T11:44:28.981Z,1009.39
2016-04-20T11:45:28.985Z,1009.35
2016-04-20T11:46:28.972Z,1009.02
2016-04-20T11:47:28.974Z,1009.33
2016-04-20T11:48:28.978Z,1009.13
2016-04-20T11:49:28.980Z,1009.02
2016-04-20T11:50:28.998Z,1009.2
2016-04-20T11:51:28.954Z,1009.21
2016-04-20T11:52:28.956Z,1009.2
2016-04-20T11:53:28.944Z,1009.2
2016-04-20T11:54:28.947Z,1009.15
2016-04-20T11:55:28.933Z,1009.16
2016-04-20T11:56:28.921Z,1009.22
2016-04-20T11:57:28.923Z,1009.14
2016-04-20T11:58:28.926Z,1009.14
2016-04-20T11:59:28.914Z,1009.11
2016-04-20T12:00:28.932Z,1008.98
2016-04-20T12:01:28.903Z,1009.03
2016-04-20T12:02:28.905Z,1009.13
2016-04-20T12:03:28.892Z,1009
2016-04-20T12:04:28.895Z,1008.96
2016-04-20T12:05:28.899Z,1009
2016-04-20T12:06:28.885Z,1008.96
2016-04-20T12:07:28.872Z,1009.04
2016-04-20T12:08:28.874Z,1009.03
2016-04-20T12:09:28.862Z,1009.04
2016-04-20T12:10:28.864Z,1009.01
2016-04-20T12:11:28.867Z,1008.91
2016-04-20T12:12:28.855Z,1009.05
2016-04-20T12:13:28.842Z,1009
2016-04-20T12:14:28.845Z,1008.98
2016-04-20T12:15:28.831Z,1009.16
2016-04-20T12:16:28.817Z,1008.9
2016-04-20T12:17:28.821Z,1008.97
2016-04-20T12:18:28.809Z,1008.93
2016-04-20T12:19:28.811Z,1008.85
2016-04-20T12:20:28.892Z,1009.04
2016-04-20T12:21:28.800Z,1008.98
2016-04-20T12:22:28.787Z,1008.97
2016-04-20T12:23:28.775Z,1008.96
2016-04-20T12:24:28.777Z,1009.07
2016-04-20T12:25:28.764Z,1009.06
2016-04-20T12:26:28.766Z,1009.01
2016-04-20T12:27:28.754Z,1009.08
2016-04-20T12:28:28.741Z,1008.96
2016-04-20T12:29:28.744Z,1009.1
2016-04-20T12:30:28.730Z,1009.11
2016-04-20T12:31:28.719Z,1009.05
2016-04-20T12:32:28.704Z,1009.03
2016-04-20T12:33:28.707Z,1009.07
2016-04-20T12:34:28.694Z,1009.01
2016-04-20T12:35:28.682Z,1008.97
2016-04-20T12:36:28.669Z,1009.01
2016-04-20T12:37:28.672Z,1009.02
2016-04-20T12:38:28.659Z,1008.95
2016-04-20T12:39:28.662Z,1009.02
2016-04-20T12:40:28.649Z,1009.05
2016-04-20T12:41:28.636Z,1009.05
2016-04-20T12:42:28.623Z,1009.05
2016-04-20T12:43:28.609Z,1009.03
2016-04-20T12:44:28.612Z,1009.01
2016-04-20T12:45:28.599Z,1009
2016-04-20T12:46:28.602Z,1009.02
2016-04-20T12:47:28.590Z,1008.98
2016-04-20T12:48:28.607Z,1008.98
2016-04-20T12:49:28.564Z,1009.11
2016-04-20T12:50:28.566Z,1009.04
2016-04-20T12:51:28.569Z,1009.05
2016-04-20T12:52:28.556Z,1009.01
2016-04-20T12:53:28.542Z,1008.87
2016-04-20T12:54:28.530Z,1009.01
2016-04-20T12:55:28.533Z,1009.12
2016-04-20T12:56:28.520Z,1009.06
2016-04-20T12:57:28.506Z,1009.12
2016-04-20T12:58:28.509Z,1009.06
2016-04-20T12:59:28.497Z,1009.18
2016-04-20T13:00:28.483Z,1009.19
2016-04-20T13:01:28.485Z,1008.92
2016-04-20T13:02:28.488Z,1009.13
2016-04-20T13:03:28.492Z,1009.07
2016-04-20T13:04:28.463Z,1009.14
2016-04-20T13:05:28.482Z,1008.99
2016-04-20T13:06:28.452Z,1009.05
2016-04-20T13:07:28.471Z,1009.26
2016-04-20T13:08:28.427Z,1009.24
2016-04-20T13:09:28.430Z,1009.14
2016-04-20T13:10:28.432Z,1009.23
2016-04-20T13:11:28.418Z,1009.28
2016-04-20T13:12:28.421Z,1009.27
2016-04-20T13:13:28.409Z,1009.08
2016-04-20T13:14:28.412Z,1009.21
2016-04-20T13:15:28.384Z,1009.2
2016-04-20T13:16:28.386Z,1009.35
2016-04-20T13:17:28.373Z,1009.5
2016-04-20T13:18:28.376Z,1009.34
2016-04-20T13:19:28.378Z,1009.2
2016-04-20T13:20:28.365Z,1009.3
2016-04-20T13:21:28.353Z,1009.34
2016-04-20T13:22:28.355Z,1009.26
2016-04-20T13:23:28.342Z,1009.1
2016-04-20T13:24:28.328Z,1009.27
2016-04-20T13:25:28.347Z,1009.23
2016-04-20T13:26:28.334Z,1009.36
2016-04-20T13:27:28.322Z,1009.41
2016-04-20T13:28:28.309Z,1009.19
2016-04-20T13:29:28.311Z,1009.59
2016-04-20T13:30:28.299Z,1009.67
2016-04-20T13:31:28.301Z,1009.74
2016-04-20T13:32:28.289Z,1009.63
2016-04-20T13:33:28.291Z,1009.15
2016-04-20T13:34:28.278Z,1009.65
2016-04-20T13:35:28.280Z,1009.75
2016-04-20T13:36:28.283Z,1009.78
2016-04-20T13:37:28.270Z,1009.64
2016-04-20T13:38:28.258Z,1009.29
2016-04-20T13:39:28.260Z,1009.72
2016-04-20T13:40:28.247Z,1009.28
2016-04-20T13:41:28.250Z,1009.69
2016-04-20T13:42:28.237Z,1009.65
2016-04-20T13:43:28.239Z,1009.46
2016-04-20T13:44:28.227Z,1009.27
2016-04-20T13:45:28.245Z,1009.48
2016-04-20T13:46:28.217Z,1009.49
2016-04-20T13:47:28.453Z,1009.65
2016-04-20T13:48:28.223Z,1009.44
2016-04-20T13:49:28.225Z,1009.45
2016-04-20T13:50:28.212Z,1009.72
2016-04-20T13:51:28.198Z,1009.08
2016-04-20T13:52:28.202Z,1009.65
2016-04-20T13:53:28.204Z,1009.29
2016-04-20T13:54:28.191Z,1009.86
2016-04-20T13:55:28.194Z,1009.58
2016-04-20T13:56:28.197Z,1009.35
2016-04-20T13:57:28.183Z,1009.25
2016-04-20T13:58:28.171Z,1009.18
2016-04-20T13:59:28.173Z,1009.98
2016-04-20T14:00:28.161Z,1009.77
2016-04-20T14:01:28.164Z,1009.46
2016-04-20T14:02:28.166Z,1009.46
2016-04-20T14:03:28.153Z,1009.41
2016-04-20T14:04:28.155Z,1009.44
2016-04-20T14:05:28.143Z,1009.4
2016-04-20T14:06:29.160Z,1009.49
2016-04-20T14:07:29.086Z,1009.26
2016-04-20T14:08:28.666Z,1009.31
2016-04-20T14:09:28.122Z,1009.3
2016-04-20T14:10:28.860Z,1009.51
2016-04-20T14:11:28.877Z,1009.32
2016-04-20T14:12:28.943Z,1009.39
2016-04-20T14:13:29.165Z,1009.6
2016-04-20T14:14:28.433Z,1009.47
2016-04-20T14:15:28.091Z,1009.45
2016-04-20T14:16:28.140Z,1009.43
2016-04-20T14:17:29.143Z,1009.51
2016-04-20T14:18:29.271Z,1009.62
2016-04-20T14:19:28.056Z,1009.75
2016-04-20T14:20:28.590Z,1009.41
2016-04-20T14:21:28.092Z,1009.52
2016-04-20T14:22:29.830Z,1009.41
2016-04-20T14:23:28.832Z,1009.47
2016-04-20T14:24:28.163Z,1009.5
2016-04-20T14:25:28.010Z,1009.53
2016-04-20T14:26:28.654Z,1009.46
2016-04-20T14:27:28.031Z,1009.57
2016-04-20T14:28:28.534Z,1009.66
2016-04-20T14:29:28.615Z,1009.62
2016-04-20T14:30:27.962Z,1009.51
2016-04-20T14:31:27.964Z,1010.29
2016-04-20T14:32:27.950Z,1009.74
2016-04-20T14:33:27.953Z,1010.34
2016-04-20T14:34:28.440Z,1009.93
2016-04-20T14:35:28.756Z,1010.26
2016-04-20T14:36:28.555Z,1009.39
2016-04-20T14:37:27.901Z,1009.31
2016-04-20T14:38:27.904Z,1010.16
2016-04-20T14:39:27.892Z,1009.44
2016-04-20T14:40:27.878Z,1009.39
2016-04-20T14:41:27.881Z,1010.45
2016-04-20T14:42:27.884Z,1009.34
2016-04-20T14:43:27.871Z,1009.39
2016-04-20T14:44:27.905Z,1009.39
2016-04-20T14:45:27.845Z,1009.33
2016-04-20T14:46:27.833Z,1010.13
2016-04-20T14:47:27.835Z,1009.5
2016-04-20T14:48:27.822Z,1010.28
2016-04-20T14:49:27.825Z,1009.4
2016-04-20T14:50:27.811Z,1009.43
2016-04-20T14:51:27.814Z,1010.27
2016-04-20T14:52:27.801Z,1009.36
2016-04-20T14:53:27.929Z,1009.41
2016-04-20T14:54:27.791Z,1010.26
2016-04-20T14:55:27.779Z,1010.14
2016-04-20T14:56:27.765Z,1010.13
2016-04-20T14:57:27.768Z,1009.95
2016-04-20T14:58:27.755Z,1009.24
2016-04-20T14:59:27.758Z,1009.36
2016-04-20T15:00:27.745Z,1009.44
2016-04-20T15:01:27.748Z,1009.42
2016-04-20T15:02:27.734Z,1009.42
2016-04-20T15:03:27.737Z,1010.25
2016-04-20T15:04:27.723Z,1009.43
2016-04-20T15:05:27.820Z,1009.33
2016-04-20T15:06:27.714Z,1009.4
2016-04-20T15:07:27.701Z,1009.44
2016-04-20T15:08:27.704Z,1009.36
2016-04-20T15:09:27.692Z,1009.5
2016-04-20T15:10:27.694Z,1009.47
2016-04-20T15:11:27.681Z,1010.19
2016-04-20T15:12:27.683Z,1009.73
2016-04-20T15:13:27.670Z,1009.41
2016-04-20T15:14:27.657Z,1009.41
2016-04-20T15:15:27.644Z,1009.4
2016-04-20T15:16:28.381Z,1010.23
2016-04-20T15:17:27.649Z,1010.1
2016-04-20T15:18:27.636Z,1009.31
2016-04-20T15:19:27.624Z,1009.36
2016-04-20T15:20:27.611Z,1010.34
2016-04-20T15:21:27.613Z,1010.06
2016-04-20T15:22:27.616Z,1010.13
2016-04-20T15:23:27.588Z,1010.36
2016-04-20T15:24:27.590Z,1009.41
2016-04-20T15:25:27.577Z,1009.36
2016-04-20T15:26:27.580Z,1009.73
2016-04-20T15:27:27.567Z,1009.37
2016-04-20T15:28:27.571Z,1009.65
2016-04-20T15:29:27.588Z,1009.43
2016-04-20T15:30:27.576Z,1009.52
2016-04-20T15:31:27.546Z,1009.7
2016-04-20T15:32:27.534Z,1009.47
2016-04-20T15:33:27.552Z,1009.65
2016-04-20T15:34:27.523Z,1009.63
2016-04-20T15:35:27.526Z,1009.59
2016-04-20T15:36:27.564Z,1009.57
2016-04-20T15:37:27.505Z,1009.61
2016-04-20T15:38:27.477Z,1009.56
2016-04-20T15:39:27.479Z,1009.54
2016-04-20T15:40:27.483Z,1009.45
2016-04-20T15:41:27.469Z,1009.61
2016-04-20T15:42:27.456Z,1009.59
2016-04-20T15:43:27.444Z,1009.57
2016-04-20T15:44:27.431Z,1009.69
2016-04-20T15:45:27.417Z,1009.62
2016-04-20T15:46:27.420Z,1009.61
2016-04-20T15:47:27.392Z,1009.72
2016-04-20T15:48:27.395Z,1009.73
2016-04-20T15:49:27.382Z,1009.7
2016-04-20T15:50:27.369Z,1009.74
2016-04-20T15:51:27.512Z,1009.67
2016-04-20T15:52:27.343Z,1009.68
2016-04-20T15:53:27.346Z,1009.64
2016-04-20T15:54:27.332Z,1009.86
2016-04-20T15:55:27.319Z,1009.63
2016-04-20T15:56:27.306Z,1009.65
2016-04-20T15:57:27.293Z,1009.79
2016-04-20T15:58:27.318Z,1009.75
2016-04-20T15:59:27.346Z,1009.69
2016-04-20T16:00:27.391Z,1009.66
2016-04-20T16:01:27.419Z,1009.72
2016-04-20T16:02:27.463Z,1009.85
2016-04-20T16:03:27.458Z,1009.8
2016-04-20T16:04:27.467Z,1009.68
2016-04-20T16:06:55.707Z,1009.7
2016-04-20T16:07:55.691Z,1009.68
2016-04-20T16:08:55.683Z,1009.62
2016-04-20T16:09:55.692Z,1009.56
2016-04-20T16:10:55.684Z,1009.82
2016-04-20T16:11:55.677Z,1009.66
2016-04-20T16:12:55.652Z,1009.73
2016-04-20T16:13:55.657Z,1009.76
2016-04-20T16:14:55.646Z,1009.75
2016-04-20T16:15:55.635Z,1009.88
2016-04-20T16:16:55.638Z,1009.69
2016-04-20T16:17:55.628Z,1009.73
2016-04-20T16:18:55.616Z,1009.76
2016-04-20T16:19:55.588Z,1009.77
2016-04-20T16:20:55.592Z,1009.82
2016-04-20T16:21:55.564Z,1009.82
2016-04-20T16:22:55.552Z,1009.89
2016-04-20T16:23:55.554Z,1009.83
2016-04-20T16:24:55.541Z,1009.87
2016-04-20T16:25:55.513Z,1009.82
2016-04-20T16:26:55.516Z,1009.83
2016-04-20T16:27:55.504Z,1009.79
2016-04-20T16:28:55.491Z,1009.95
2016-04-20T16:29:55.478Z,1009.87
2016-04-20T16:30:55.466Z,1009.93
2016-04-20T16:31:55.452Z,1010.02
2016-04-20T16:32:55.439Z,1009.96
2016-04-20T16:33:55.441Z,1009.98
2016-04-20T16:34:55.413Z,1009.88
2016-04-20T16:35:55.401Z,1009.87
2016-04-20T16:36:55.403Z,1009.79
2016-04-20T16:37:55.374Z,1009.81
2016-04-20T16:38:55.362Z,1009.86
2016-04-20T16:39:56.240Z,1009.84
2016-04-20T16:40:55.367Z,1009.86
2016-04-20T16:41:55.338Z,1009.87
2016-04-20T16:42:55.326Z,1009.89
2016-04-20T16:43:55.312Z,1009.99
2016-04-20T16:44:55.300Z,1009.92
2016-04-20T16:45:55.287Z,1009.99
2016-04-20T16:46:55.305Z,1010.03
2016-04-20T16:47:55.261Z,1009.97
2016-04-20T16:48:55.248Z,1009.95
2016-04-20T16:49:55.235Z,1009.98
2016-04-20T16:50:55.254Z,1010.09
2016-04-20T16:51:55.209Z,1010.06
2016-04-20T16:52:55.197Z,1010.08
2016-04-20T16:53:55.183Z,1009.99
2016-04-20T16:54:55.186Z,1010.03
2016-04-20T16:55:55.173Z,1010.02
2016-04-20T16:56:55.160Z,1010.2
2016-04-20T16:57:55.147Z,1010.07
2016-04-20T16:58:55.134Z,1010.03
2016-04-20T16:59:55.122Z,1010.14
2016-04-20T17:00:55.108Z,1010.11
2016-04-20T17:01:55.096Z,1010.2
2016-04-20T17:02:55.082Z,1010.11
2016-04-20T17:03:55.069Z,1010.06
2016-04-20T17:04:55.057Z,1010.13
2016-04-20T17:05:55.044Z,1010.12
2016-04-20T17:06:55.030Z,1010.12
2016-04-20T17:07:55.033Z,1010.17
2016-04-20T17:08:55.005Z,1010.18
2016-04-20T17:09:55.007Z,1010.19
2016-04-20T17:10:54.995Z,1010.27
2016-04-20T17:11:54.982Z,1010.32
2016-04-20T17:12:54.969Z,1010.31
2016-04-20T17:13:54.971Z,1010.25
2016-04-20T17:14:54.943Z,1010.3
2016-04-20T17:15:54.930Z,1010.25
2016-04-20T17:16:54.918Z,1010.22
2016-04-20T17:17:54.904Z,1010.24
2016-04-20T17:18:54.891Z,1010.22
2016-04-20T17:19:54.878Z,1010.49
2016-04-20T17:20:54.865Z,1010.25
2016-04-20T17:21:54.868Z,1010.23
2016-04-20T17:22:54.840Z,1010.28
2016-04-20T17:23:54.826Z,1010.24
2016-04-20T17:24:54.814Z,1010.26
2016-04-20T17:25:54.817Z,1010.21
2016-04-20T17:26:54.803Z,1010.19
2016-04-20T17:27:54.790Z,1010.17
2016-04-20T17:28:54.777Z,1010.19
2016-04-20T17:29:54.765Z,1010.19
2016-04-20T17:30:54.752Z,1010.17
2016-04-20T17:31:56.285Z,1010.25
2016-04-20T17:32:55.195Z,1010.11
2016-04-20T17:33:55.572Z,1010.17
2016-04-20T17:34:56.388Z,1010.28
2016-04-20T17:35:55.984Z,1010.21
2016-04-20T17:36:55.830Z,1010.21
2016-04-20T17:37:55.146Z,1010.23
2016-04-20T17:38:55.507Z,1010.26
2016-04-20T17:39:55.416Z,1010.24
2016-04-20T17:40:56.029Z,1010.24
2016-04-20T17:41:55.954Z,1010.27
2016-04-20T17:42:55.082Z,1010.29
2016-04-20T17:43:54.584Z,1010.29
2016-04-20T17:44:54.587Z,1010.33
2016-04-20T17:45:54.558Z,1010.29
2016-04-20T17:46:54.545Z,1010.32
2016-04-20T17:47:54.532Z,1010.29
2016-04-20T17:48:54.534Z,1010.26
2016-04-20T17:49:54.507Z,1010.33
2016-04-20T17:50:54.493Z,1010.31
2016-04-20T17:51:54.481Z,1010.41
2016-04-20T17:52:54.467Z,1010.28
2016-04-20T17:53:54.460Z,1010.26
2016-04-20T17:54:54.448Z,1010.31
2016-04-20T17:55:54.434Z,1010.42
2016-04-20T17:58:09.877Z,1010.24
2016-04-20T17:59:09.864Z,1010.28
2016-04-20T18:00:09.851Z,1010.31
2016-04-20T18:01:09.838Z,1010.3
2016-04-20T18:02:09.825Z,1010.26
2016-04-20T18:03:09.812Z,1010.3
2016-04-20T18:04:09.814Z,1010.31
2016-04-20T18:05:09.787Z,1010.29
2016-04-20T18:06:09.773Z,1010.33
2016-04-20T18:07:09.759Z,1010.34
2016-04-20T18:08:09.745Z,1010.46
2016-04-20T18:09:09.749Z,1010.35
2016-04-20T18:10:09.720Z,1010.37
2016-04-20T18:11:09.706Z,1010.34
2016-04-20T18:12:09.695Z,1010.4
2016-04-20T18:13:09.681Z,1010.32
2016-04-20T18:14:09.668Z,1010.37
2016-04-20T18:15:09.655Z,1010.38
2016-04-20T18:16:09.642Z,1010.38
2016-04-20T18:17:09.618Z,1010.41
2016-04-20T18:18:09.605Z,1010.42
2016-04-20T18:19:09.592Z,1010.41
2016-04-20T18:20:09.578Z,1010.37
2016-04-20T18:21:09.582Z,1010.38
2016-04-20T18:22:09.558Z,1010.41
2016-04-20T18:23:09.545Z,1010.39
2016-04-20T18:24:09.532Z,1010.47
2016-04-20T18:25:09.519Z,1010.44
2016-04-20T18:26:09.505Z,1010.52
2016-04-20T18:27:09.494Z,1010.49
2016-04-20T18:28:09.480Z,1010.53
2016-04-20T18:29:09.467Z,1010.5
2016-04-20T18:30:09.439Z,1010.63
2016-04-20T18:31:09.425Z,1010.51
2016-04-20T18:32:09.428Z,1010.51
2016-04-20T18:33:09.416Z,1010.63
2016-04-20T18:34:09.402Z,1010.52
2016-04-20T18:35:09.374Z,1010.49
2016-04-20T18:36:09.377Z,1010.54
2016-04-20T18:37:09.349Z,1010.53
2016-04-20T18:38:09.351Z,1010.57
2016-04-20T18:39:09.338Z,1010.61
2016-04-20T18:40:09.325Z,1010.56
2016-04-20T18:42:13.752Z,1010.59
2016-04-20T18:43:13.740Z,1010.67
2016-04-20T18:44:13.789Z,1010.71
2016-04-20T18:45:13.729Z,1010.71
2016-04-20T18:46:13.715Z,1010.73
2016-04-20T18:47:13.704Z,1010.79
2016-04-20T18:48:13.706Z,1010.8
2016-04-20T18:49:13.740Z,1010.77
2016-04-20T18:50:13.664Z,1010.71
2016-04-20T18:51:13.651Z,1010.71
2016-04-20T18:52:13.622Z,1010.78
2016-04-20T18:53:13.610Z,1010.79
2016-04-20T18:54:13.597Z,1010.7
2016-04-20T18:55:13.600Z,1010.76
2016-04-20T18:56:13.572Z,1010.81
2016-04-20T18:57:13.558Z,1010.7
2016-04-20T18:58:13.545Z,1010.78
2016-04-20T18:59:13.517Z,1010.84
2016-04-20T19:00:13.519Z,1010.82
2016-04-20T19:01:13.492Z,1010.75
2016-04-20T19:02:13.478Z,1010.79
2016-04-20T19:03:13.465Z,1010.8
2016-04-20T19:04:13.452Z,1010.81
2016-04-20T19:05:13.439Z,1010.81
2016-04-20T19:06:13.427Z,1010.8
2016-04-20T19:07:13.414Z,1010.84
2016-04-20T19:08:13.399Z,1010.79
2016-04-20T19:09:13.371Z,1010.81
2016-04-20T19:10:13.359Z,1010.92
2016-04-20T19:11:13.346Z,1010.92
2016-04-20T19:12:13.332Z,1010.88
2016-04-20T19:13:13.321Z,1010.99
2016-04-20T19:14:13.307Z,1010.97
2016-04-20T19:15:13.310Z,1011.01
2016-04-20T19:16:13.282Z,1011.01
2016-04-20T19:17:13.268Z,1011.04
2016-04-20T19:18:13.255Z,1011.04
2016-04-20T19:19:13.242Z,1011.1
2016-04-20T19:20:13.229Z,1011.11
2016-04-20T19:21:13.217Z,1011.12
2016-04-20T19:22:13.220Z,1011.15
2016-04-20T19:23:13.190Z,1011.08
2016-04-20T19:24:13.162Z,1011.12
2016-04-20T19:25:13.164Z,1011.21
2016-04-20T19:26:13.136Z,1011.15
2016-04-20T19:27:13.123Z,1011.16
2016-04-20T19:28:13.111Z,1011.17
2016-04-20T19:29:13.097Z,1011.17
2016-04-20T19:30:13.084Z,1011.17
2016-04-20T19:31:13.072Z,1011.17
2016-04-20T19:32:13.058Z,1011.18
2016-04-20T19:33:13.047Z,1011.14
2016-04-20T19:34:13.033Z,1011.17
2016-04-20T19:35:13.019Z,1011.18
2016-04-20T19:36:12.991Z,1011.25
2016-04-20T19:37:12.978Z,1011.19
2016-04-20T19:38:12.980Z,1011.21
2016-04-20T19:39:12.953Z,1011.24
2016-04-20T19:40:12.955Z,1011.23
2016-04-20T19:41:12.927Z,1011.27
2016-04-20T19:42:12.914Z,1011.28
2016-04-20T19:43:12.901Z,1011.27
2016-04-20T19:44:12.888Z,1011.32
2016-04-20T19:45:12.874Z,1011.32
2016-04-20T19:46:12.862Z,1011.37
2016-04-20T19:47:12.849Z,1011.36
2016-04-20T19:48:12.821Z,1011.4
2016-04-20T19:49:12.823Z,1011.39
2016-04-20T19:50:12.795Z,1011.37
2016-04-20T19:51:12.782Z,1011.48
2016-04-20T19:52:12.768Z,1011.45
2016-04-20T19:53:12.756Z,1011.48
2016-04-20T19:54:12.742Z,1011.51
2016-04-20T19:55:12.730Z,1011.48
2016-04-20T19:56:12.717Z,1011.53
2016-04-20T19:57:12.704Z,1011.51
2016-04-20T19:58:12.691Z,1011.52
2016-04-20T19:59:12.678Z,1011.55
2016-04-20T20:00:12.650Z,1011.55
2016-04-20T20:01:12.653Z,1011.57
2016-04-20T20:02:12.624Z,1011.54
2016-04-20T20:03:12.627Z,1011.57
2016-04-20T20:04:12.597Z,1011.64
2016-04-20T20:05:12.586Z,1011.63
2016-04-20T20:06:12.572Z,1011.65
2016-04-20T20:07:12.559Z,1011.64
2016-04-20T20:08:12.546Z,1011.63
2016-04-20T20:09:12.533Z,1011.65
2016-04-20T20:10:12.520Z,1011.67
2016-04-20T20:11:12.491Z,1011.72
2016-04-20T20:12:12.495Z,1011.74
2016-04-20T20:13:12.481Z,1011.77
2016-04-20T20:14:12.452Z,1011.8
2016-04-20T20:15:12.440Z,1011.8
2016-04-20T20:16:12.427Z,1011.85
2016-04-20T20:17:12.415Z,1011.82
2016-04-20T20:18:12.401Z,1011.87
2016-04-20T20:19:12.388Z,1011.83
2016-04-20T20:20:12.376Z,1011.88
2016-04-20T20:21:12.346Z,1011.86
2016-04-20T20:22:12.359Z,1011.9
2016-04-20T20:23:12.323Z,1011.91
2016-04-20T20:24:12.326Z,1011.9
2016-04-20T20:25:12.297Z,1011.96
2016-04-20T20:26:12.284Z,1011.95
2016-04-20T20:27:12.271Z,1011.95
2016-04-20T20:28:12.275Z,1011.95
2016-04-20T20:29:12.245Z,1011.96
2016-04-20T20:30:12.232Z,1011.98
2016-04-20T20:31:12.361Z,1011.94
2016-04-20T20:32:12.191Z,1011.96
2016-04-20T20:33:12.178Z,1011.96
2016-04-20T20:34:12.180Z,1011.97
2016-04-20T20:35:12.152Z,1011.92
2016-04-20T20:36:12.155Z,1011.96
2016-04-20T20:37:12.126Z,1012
2016-04-20T20:38:12.114Z,1012.02
2016-04-20T20:39:12.101Z,1012.01